Time;durP1;ratioP1;P1;durP2;ratioP2;P2;SDS_P1;SDS_P2;PMS_P1;PMS_P2;Temp;Humidity;BMP_temperature;BMP_pressure;BME280_temperature;BME280_humidity;BME280_pressure;Samples;Min_cycle;Max_cycle;Signal;HPM_P1;HPM_P2
2022/03/28 00:00:32;;;;;;;8.47;7.00;;;5.40;99.90;;;;;;4956917;28;20546;-52
2022/03/28 00:02:59;;;;;;;8.37;6.80;;;5.40;99.90;;;;;;4956575;28;20553;-52
2022/03/28 00:05:25;;;;;;;10.20;6.40;;;5.40;99.90;;;;;;4949752;28;20477;-52
2022/03/28 00:07:53;;;;;;;8.80;6.73;;;5.30;99.90;;;;;;4955220;28;20504;-52
2022/03/28 00:10:20;;;;;;;8.43;7.43;;;5.30;99.90;;;;;;4957989;28;21051;-53
2022/03/28 00:12:46;;;;;;;10.33;6.90;;;5.30;99.90;;;;;;4964565;28;20485;-52
2022/03/28 00:15:13;;;;;;;8.60;6.60;;;5.30;99.90;;;;;;4950759;28;20545;-51
2022/03/28 00:17:39;;;;;;;15.67;7.03;;;5.30;99.90;;;;;;4957699;28;20549;-52
2022/03/28 00:20:09;;;;;;;8.90;7.13;;;5.20;99.90;;;;;;4953778;28;20902;-52
2022/03/28 00:22:36;;;;;;;9.97;7.67;;;5.20;99.90;;;;;;4958331;28;20962;-52
2022/03/28 00:25:05;;;;;;;9.53;7.73;;;5.10;99.90;;;;;;4958346;28;21016;-52
2022/03/28 00:27:31;;;;;;;9.43;6.97;;;5.10;99.90;;;;;;4953240;28;20585;-52
2022/03/28 00:29:58;;;;;;;10.80;7.50;;;5.10;99.90;;;;;;4959813;28;20500;-52
2022/03/28 00:32:25;;;;;;;10.17;7.30;;;5.10;99.90;;;;;;4950940;28;20577;-52
2022/03/28 00:34:53;;;;;;;8.33;7.47;;;5.00;99.90;;;;;;4953400;28;20501;-52
2022/03/28 00:37:19;;;;;;;9.37;6.60;;;4.90;99.90;;;;;;4954847;28;20482;-52
2022/03/28 00:39:46;;;;;;;11.40;7.77;;;4.90;99.90;;;;;;4953712;28;21035;-52
2022/03/28 00:42:14;;;;;;;10.63;7.07;;;4.90;99.90;;;;;;4950567;28;21015;-52
2022/03/28 00:44:41;;;;;;;8.90;7.23;;;4.90;99.90;;;;;;4960224;28;20486;-52
2022/03/28 00:47:07;;;;;;;8.17;7.07;;;4.90;99.90;;;;;;4956717;28;20568;-52
2022/03/28 00:49:34;;;;;;;11.53;7.83;;;4.90;99.90;;;;;;4962966;28;20574;-52
2022/03/28 00:52:01;;;;;;;10.07;7.60;;;4.80;99.90;;;;;;4962625;28;20563;-52
2022/03/28 00:54:28;;;;;;;11.30;8.10;;;4.80;99.90;;;;;;4965978;28;20547;-52
2022/03/28 00:56:55;;;;;;;10.63;8.60;;;4.80;99.90;;;;;;4950856;28;20516;-52
2022/03/28 00:59:23;;;;;;;9.20;7.10;;;4.70;99.90;;;;;;4953295;28;20895;-52
2022/03/28 01:01:50;;;;;;;8.10;7.30;;;4.70;99.90;;;;;;4960204;28;20459;-52
2022/03/28 01:04:17;;;;;;;8.70;7.47;;;4.70;97.90;;;;;;4955620;28;20963;-52
2022/03/28 01:06:44;;;;;;;11.57;7.07;;;4.70;98.30;;;;;;4958375;28;20521;-53
2022/03/28 01:09:11;;;;;;;8.73;6.90;;;4.70;99.90;;;;;;4961019;28;20907;-53
2022/03/28 01:11:39;;;;;;;9.40;7.10;;;4.60;99.90;;;;;;4960244;28;20517;-52
2022/03/28 01:14:05;;;;;;;8.57;7.70;;;4.60;99.90;;;;;;4952493;28;20490;-53
2022/03/28 01:18:05;;;;;;;7.80;7.00;;;4.50;99.90;;;;;;4953328;28;20569;-53
2022/03/28 01:19:19;;;;;;;9.93;6.80;;;4.60;97.30;;;;;;4960015;28;20462;-52
2022/03/28 01:21:47;;;;;;;14.97;6.90;;;4.50;94.40;;;;;;4959087;28;20447;-52
2022/03/28 01:24:14;;;;;;;12.30;7.70;;;4.50;97.90;;;;;;4961387;28;20270;-52
2022/03/28 01:26:40;;;;;;;11.73;6.93;;;4.50;99.90;;;;;;4962483;28;20584;-52
2022/03/28 01:29:08;;;;;;;8.07;6.63;;;4.40;99.90;;;;;;4962051;28;20564;-52
2022/03/28 01:31:38;;;;;;;9.80;6.70;;;4.40;99.90;;;;;;4952052;28;20534;-52
2022/03/28 01:34:05;;;;;;;11.20;7.20;;;4.40;94.00;;;;;;4954828;28;20490;-52
2022/03/28 01:36:31;;;;;;;8.50;7.63;;;4.40;90.80;;;;;;4965210;28;21060;-52
2022/03/28 01:38:59;;;;;;;12.80;7.77;;;4.50;80.50;;;;;;4954010;28;21028;-52
2022/03/28 01:41:26;;;;;;;9.53;7.83;;;4.40;91.80;;;;;;4959298;28;20552;-52
2022/03/28 01:43:52;;;;;;;8.87;7.40;;;4.40;89.00;;;;;;4966192;28;20544;-52
2022/03/28 01:46:19;;;;;;;7.60;6.67;;;4.30;87.80;;;;;;4956933;28;20524;-52
2022/03/28 01:48:45;;;;;;;10.47;7.67;;;4.30;86.10;;;;;;4953615;28;20505;-52
2022/03/28 01:51:12;;;;;;;10.50;7.30;;;4.20;91.20;;;;;;4959668;28;20572;-53
2022/03/28 01:53:38;;;;;;;10.60;7.00;;;4.20;94.90;;;;;;4957756;28;20549;-51
2022/03/28 01:56:06;;;;;;;11.10;7.30;;;4.20;97.80;;;;;;4953331;28;20536;-52
2022/03/28 01:58:33;;;;;;;10.30;7.30;;;4.20;92.10;;;;;;4954826;28;20494;-51
2022/03/28 02:00:59;;;;;;;10.90;8.33;;;4.10;87.50;;;;;;4957700;28;20557;-52
2022/03/28 02:03:26;;;;;;;11.50;7.97;;;4.10;74.00;;;;;;4957835;28;21003;-52
2022/03/28 02:05:53;;;;;;;11.33;7.40;;;4.10;71.90;;;;;;4953450;28;20522;-51
2022/03/28 02:08:20;;;;;;;10.80;7.97;;;4.10;73.70;;;;;;4958017;28;20471;-51
2022/03/28 02:10:46;;;;;;;10.40;7.97;;;4.10;77.50;;;;;;4958010;28;20533;-52
2022/03/28 02:13:14;;;;;;;12.07;7.67;;;4.10;80.40;;;;;;4954116;28;20528;-52
2022/03/28 02:15:40;;;;;;;10.20;7.43;;;4.00;85.10;;;;;;4961523;28;20581;-52
2022/03/28 02:18:07;;;;;;;20.10;7.47;;;4.10;81.80;;;;;;4954747;28;20546;-52
2022/03/28 02:20:34;;;;;;;11.63;8.13;;;4.00;76.20;;;;;;4960258;28;20544;-52
2022/03/28 02:23:00;;;;;;;12.77;7.10;;;4.00;70.80;;;;;;4949712;28;20541;-52
2022/03/28 02:25:27;;;;;;;9.17;8.00;;;4.00;72.30;;;;;;4950461;28;20561;-53
2022/03/28 02:27:54;;;;;;;10.43;8.50;;;4.00;77.30;;;;;;4951346;28;20559;-52
2022/03/28 02:30:21;;;;;;;11.83;8.20;;;4.00;72.90;;;;;;4958366;28;20551;-52
2022/03/28 02:32:48;;;;;;;10.80;8.00;;;4.00;65.00;;;;;;4963546;28;20525;-52
2022/03/28 02:35:15;;;;;;;8.80;6.70;;;4.00;64.40;;;;;;4953569;28;20494;-52
2022/03/28 02:37:41;;;;;;;12.73;8.00;;;3.90;65.30;;;;;;4961222;28;20496;-52
2022/03/28 02:40:09;;;;;;;10.67;7.50;;;4.00;63.70;;;;;;4962628;28;20487;-52
2022/03/28 02:42:36;;;;;;;15.23;9.13;;;4.00;67.80;;;;;;4962237;28;20549;-52
2022/03/28 02:45:03;;;;;;;13.80;7.47;;;3.90;69.90;;;;;;4953431;28;20564;-52
2022/03/28 02:47:31;;;;;;;10.03;7.90;;;3.90;65.80;;;;;;4961683;28;20565;-52
2022/03/28 02:49:57;;;;;;;9.70;7.30;;;3.90;64.60;;;;;;4961754;28;20493;-52
2022/03/28 02:52:24;;;;;;;12.90;8.40;;;3.90;69.50;;;;;;4958399;28;20521;-52
2022/03/28 02:54:51;;;;;;;14.53;8.03;;;3.90;59.50;;;;;;4955980;28;20514;-52
2022/03/28 02:57:18;;;;;;;10.93;7.83;;;4.00;53.70;;;;;;4957741;28;20486;-51
2022/03/28 02:59:44;;;;;;;12.30;7.47;;;3.90;54.70;;;;;;4958376;28;20516;-52
2022/03/28 03:02:11;;;;;;;11.47;8.03;;;3.90;57.50;;;;;;4960898;28;20839;-52
2022/03/28 03:04:39;;;;;;;8.47;7.50;;;3.90;52.50;;;;;;4959284;28;20866;-52
2022/03/28 03:07:06;;;;;;;13.83;9.13;;;3.90;53.00;;;;;;4971024;28;20500;-52
2022/03/28 03:09:32;;;;;;;9.30;7.90;;;3.90;48.60;;;;;;4951866;28;20494;-52
2022/03/28 03:11:59;;;;;;;16.00;8.10;;;3.90;48.60;;;;;;4963052;28;20541;-52
2022/03/28 03:14:27;;;;;;;13.67;8.10;;;3.90;55.10;;;;;;4962537;28;21147;-54
2022/03/28 03:16:54;;;;;;;10.50;7.50;;;3.90;50.20;;;;;;4960546;28;20482;-53
2022/03/28 03:19:21;;;;;;;14.07;8.07;;;3.90;48.10;;;;;;4956878;28;20505;-53
2022/03/28 03:21:49;;;;;;;9.60;7.60;;;3.90;47.10;;;;;;4963829;28;20462;-53
2022/03/28 03:24:15;;;;;;;9.20;7.93;;;3.90;52.30;;;;;;4961504;28;20899;-53
2022/03/28 03:26:43;;;;;;;11.70;9.17;;;3.90;46.60;;;;;;4954026;28;20526;-53
2022/03/28 03:29:09;;;;;;;10.47;8.30;;;3.80;48.70;;;;;;4958637;28;20537;-53
2022/03/28 03:31:36;;;;;;;12.40;8.57;;;3.80;59.20;;;;;;4956275;28;20492;-53
2022/03/28 03:34:02;;;;;;;12.57;7.73;;;3.80;61.00;;;;;;4956680;28;20960;-51
2022/03/28 03:36:29;;;;;;;12.80;8.30;;;3.70;61.20;;;;;;4956182;28;20841;-52
2022/03/28 03:38:57;;;;;;;10.57;7.90;;;3.70;58.40;;;;;;4959119;28;20505;-52
2022/03/28 03:41:23;;;;;;;14.20;8.10;;;3.70;53.90;;;;;;4954388;28;20561;-52
2022/03/28 03:43:50;;;;;;;14.40;8.60;;;3.60;47.70;;;;;;4954160;28;20486;-52
2022/03/28 03:46:17;;;;;;;13.27;8.33;;;3.60;40.90;;;;;;4956982;28;20548;-52
2022/03/28 03:48:44;;;;;;;14.10;7.80;;;3.70;30.30;;;;;;4953916;28;20804;-52
2022/03/28 03:51:10;;;;;;;14.93;7.97;;;3.60;28.70;;;;;;4952293;28;20525;-52
2022/03/28 03:53:37;;;;;;;13.73;9.37;;;3.60;32.00;;;;;;4951845;28;20487;-51
2022/03/28 03:56:05;;;;;;;11.43;7.60;;;3.60;30.60;;;;;;4956785;28;20469;-52
2022/03/28 03:58:32;;;;;;;11.77;8.60;;;3.60;27.40;;;;;;4939659;28;20446;-52
2022/03/28 04:00:59;;;;;;;12.53;8.00;;;3.60;21.60;;;;;;4962899;28;20500;-52
2022/03/28 04:03:25;;;;;;;12.40;7.93;;;3.60;26.50;;;;;;4957975;28;20541;-52
2022/03/28 04:05:52;;;;;;;12.80;9.10;;;3.60;32.30;;;;;;4960966;28;20548;-52
2022/03/28 04:08:18;;;;;;;14.27;8.30;;;3.60;30.60;;;;;;4951278;28;20557;-52
2022/03/28 04:10:45;;;;;;;13.33;7.40;;;3.60;24.30;;;;;;4955887;28;20492;-52
2022/03/28 04:13:13;;;;;;;11.67;7.47;;;3.60;27.00;;;;;;4960986;28;20572;-52
2022/03/28 04:15:40;;;;;;;13.47;7.50;;;3.50;34.30;;;;;;4958339;28;20490;-52
2022/03/28 04:18:07;;;;;;;14.80;8.53;;;3.50;45.20;;;;;;4955658;28;20494;-52
2022/03/28 04:20:33;;;;;;;10.87;8.03;;;3.40;38.00;;;;;;4954503;28;20470;-52
2022/03/28 04:23:00;;;;;;;16.70;8.97;;;3.40;31.10;;;;;;4959914;28;20508;-52
2022/03/28 04:25:27;;;;;;;11.17;7.43;;;3.50;29.50;;;;;;4954692;28;20490;-52
2022/03/28 04:27:53;;;;;;;16.00;7.63;;;3.50;22.40;;;;;;4957176;28;20552;-52
2022/03/28 04:30:22;;;;;;;10.80;6.93;;;3.50;89.00;;;;;;4962440;28;20823;-53
2022/03/28 04:32:49;;;;;;;12.53;7.50;;;3.60;73.30;;;;;;4957474;28;20489;-52
2022/03/28 04:35:16;;;;;;;9.73;7.23;;;3.60;20.80;;;;;;4959043;28;20470;-52
2022/03/28 04:37:44;;;;;;;17.43;8.20;;;3.70;29.60;;;;;;4964720;28;20462;-53
2022/03/28 04:40:13;;;;;;;10.90;7.33;;;3.60;30.70;;;;;;4954193;29;20466;-54
2022/03/28 04:42:40;;;;;;;12.30;7.60;;;3.60;39.40;;;;;;4963983;28;20883;-52
2022/03/28 04:45:07;;;;;;;12.83;7.00;;;3.50;45.00;;;;;;4956542;28;20497;-52
2022/03/28 04:47:36;;;;;;;17.70;7.47;;;3.40;47.80;;;;;;4953499;28;21011;-52
2022/03/28 04:50:03;;;;;;;12.90;7.50;;;3.40;42.20;;;;;;4955265;28;20496;-52
2022/03/28 04:52:29;;;;;;;11.50;6.80;;;3.40;42.20;;;;;;4962367;28;20585;-52
2022/03/28 04:54:56;;;;;;;11.53;7.87;;;3.40;31.00;;;;;;4965854;28;20493;-52
2022/03/28 04:57:23;;;;;;;14.53;7.20;;;3.40;26.50;;;;;;4957096;28;20486;-53
2022/03/28 04:59:49;;;;;;;17.73;8.17;;;3.40;26.80;;;;;;4956905;28;20555;-53
2022/03/28 05:02:16;;;;;;;16.10;8.13;;;3.40;99.90;;;;;;4960138;28;20501;-51
2022/03/28 05:04:44;;;;;;;14.63;8.70;;;3.50;99.90;;;;;;4952832;28;20481;-52
2022/03/28 05:07:10;;;;;;;18.40;9.83;;;3.50;99.90;;;;;;4954349;28;20576;-52
2022/03/28 05:09:37;;;;;;;12.67;8.33;;;3.70;99.90;;;;;;4965553;28;20494;-52
2022/03/28 05:12:04;;;;;;;14.93;8.67;;;3.70;99.90;;;;;;4959082;28;20459;-53
2022/03/28 05:14:31;;;;;;;15.50;8.80;;;3.80;99.90;;;;;;4958425;28;20556;-53
2022/03/28 05:16:57;;;;;;;18.73;8.23;;;3.90;99.90;;;;;;4956203;28;20565;-53
2022/03/28 05:19:24;;;;;;;10.00;8.13;;;3.90;99.90;;;;;;4963265;28;20493;-53
2022/03/28 05:21:52;;;;;;;17.00;8.03;;;4.00;99.90;;;;;;4956600;28;21047;-53
2022/03/28 05:24:20;;;;;;;14.00;8.23;;;4.10;99.90;;;;;;4954352;28;20554;-53
2022/03/28 05:26:47;;;;;;;13.60;8.17;;;4.20;99.90;;;;;;4962354;28;20498;-52
2022/03/28 05:29:15;;;;;;;16.67;9.90;;;4.20;99.90;;;;;;4960425;28;20493;-52
2022/03/28 05:31:41;;;;;;;15.80;9.37;;;4.30;99.90;;;;;;4967967;28;20469;-52
2022/03/28 05:34:08;;;;;;;15.23;8.10;;;4.40;99.90;;;;;;4960224;28;20573;-52
2022/03/28 05:36:35;;;;;;;11.80;8.13;;;4.40;99.90;;;;;;4955498;28;20493;-52
2022/03/28 05:39:03;;;;;;;23.03;9.27;;;4.40;99.90;;;;;;4955249;28;20497;-52
2022/03/28 05:41:30;;;;;;;19.77;9.23;;;4.50;99.90;;;;;;4963713;28;20504;-52
2022/03/28 05:43:59;;;;;;;17.30;9.03;;;4.60;99.90;;;;;;4964460;28;20544;-52
2022/03/28 05:46:25;;;;;;;16.80;9.17;;;4.70;99.90;;;;;;4958980;28;21242;-53
2022/03/28 05:48:52;;;;;;;15.00;8.53;;;4.80;99.90;;;;;;4961528;28;20504;-53
2022/03/28 05:51:18;;;;;;;22.33;10.00;;;4.90;99.90;;;;;;4967864;28;20482;-52
2022/03/28 05:53:45;;;;;;;15.40;9.60;;;5.00;99.90;;;;;;4959226;28;20496;-52
2022/03/28 05:56:13;;;;;;;14.93;10.53;;;5.30;99.90;;;;;;4954726;28;20557;-52
2022/03/28 05:58:39;;;;;;;29.23;14.33;;;5.50;99.90;;;;;;4954730;28;20505;-52
2022/03/28 06:01:06;;;;;;;14.30;10.87;;;5.70;99.90;;;;;;4953913;29;20505;-52
2022/03/28 06:03:33;;;;;;;21.50;10.33;;;5.90;24.90;;;;;;4963523;28;20855;-52
2022/03/28 06:06:02;;;;;;;19.07;9.67;;;6.10;49.80;;;;;;4952880;28;21039;-52
2022/03/28 06:08:28;;;;;;;20.70;11.83;;;6.30;70.60;;;;;;4957799;28;20473;-52
2022/03/28 06:10:55;;;;;;;16.90;9.67;;;6.40;81.50;;;;;;4952615;28;20901;-52
2022/03/28 06:13:23;;;;;;;15.60;9.23;;;6.60;88.50;;;;;;4953536;28;20568;-52
2022/03/28 06:15:49;;;;;;;15.10;9.77;;;6.60;99.90;;;;;;4963422;28;20525;-52
2022/03/28 06:18:16;;;;;;;21.73;10.33;;;6.60;99.90;;;;;;4963402;28;20623;-53
2022/03/28 06:20:43;;;;;;;18.63;10.10;;;6.40;99.90;;;;;;4950174;28;20559;-52
2022/03/28 06:23:12;;;;;;;29.60;9.73;;;6.50;97.40;;;;;;4949246;28;20554;-54
2022/03/28 06:25:38;;;;;;;26.27;10.00;;;6.50;99.90;;;;;;4947091;28;20494;-54
2022/03/28 06:28:05;;;;;;;23.60;10.30;;;6.40;99.90;;;;;;4940236;28;20477;-53
2022/03/28 06:30:33;;;;;;;20.47;10.03;;;6.30;95.60;;;;;;4946335;28;20462;-53
2022/03/28 06:33:00;;;;;;;20.83;10.53;;;6.20;82.70;;;;;;4948064;28;20482;-53
2022/03/28 06:35:26;;;;;;;22.03;10.87;;;6.20;92.10;;;;;;4949407;28;20497;-53
2022/03/28 06:37:53;;;;;;;25.73;11.53;;;6.00;68.40;;;;;;4957980;28;20503;-53
2022/03/28 06:40:21;;;;;;;16.47;10.53;;;6.20;58.20;;;;;;4949683;28;20996;-53
2022/03/28 06:42:47;;;;;;;20.30;11.10;;;6.30;66.20;;;;;;4948933;28;21039;-53
2022/03/28 06:45:15;;;;;;;19.53;12.27;;;6.20;85.60;;;;;;4949418;28;20665;-53
2022/03/28 06:47:43;;;;;;;17.53;10.17;;;6.00;68.20;;;;;;4946731;28;21038;-54
2022/03/28 06:50:10;;;;;;;21.80;10.87;;;5.90;63.60;;;;;;4952416;28;20455;-53
2022/03/28 06:52:36;;;;;;;22.13;11.97;;;6.00;66.00;;;;;;4954245;28;20494;-53
2022/03/28 06:55:04;;;;;;;16.43;10.40;;;5.90;62.20;;;;;;4954184;28;20458;-54
2022/03/28 06:57:30;;;;;;;24.13;11.23;;;5.90;49.70;;;;;;4947728;28;20580;-54
2022/03/28 06:59:57;;;;;;;20.90;11.20;;;5.70;62.50;;;;;;4943096;28;20473;-52
2022/03/28 07:02:23;;;;;;;15.83;10.20;;;5.90;42.30;;;;;;4947770;28;20494;-53
2022/03/28 07:04:51;;;;;;;20.30;11.20;;;5.80;56.00;;;;;;4950457;28;20562;-52
2022/03/28 07:07:18;;;;;;;17.57;10.90;;;5.90;46.40;;;;;;4945679;28;20581;-52
2022/03/28 07:09:44;;;;;;;20.13;10.77;;;5.80;44.60;;;;;;4948734;28;20906;-53
2022/03/28 07:12:11;;;;;;;19.50;11.03;;;5.80;44.20;;;;;;4944615;28;20489;-53
2022/03/28 07:14:37;;;;;;;17.67;11.07;;;5.80;37.70;;;;;;4944428;28;21083;-54
2022/03/28 07:17:04;;;;;;;15.00;10.63;;;5.80;49.40;;;;;;4943873;28;20493;-53
2022/03/28 07:19:31;;;;;;;15.87;10.63;;;5.50;37.20;;;;;;4944995;28;20554;-53
2022/03/28 07:21:58;;;;;;;20.90;10.33;;;5.90;33.20;;;;;;4953223;28;20461;-52
2022/03/28 07:24:25;;;;;;;15.93;11.10;;;6.00;44.90;;;;;;4943784;28;20451;-53
2022/03/28 07:26:53;;;;;;;18.40;10.63;;;6.30;67.30;;;;;;4951598;28;20512;-52
2022/03/28 07:29:20;;;;;;;19.53;11.00;;;6.40;68.70;;;;;;4944134;28;20458;-54
2022/03/28 07:31:47;;;;;;;18.50;10.93;;;6.50;75.20;;;;;;4945320;28;21325;-53
2022/03/28 07:37:06;;;;;;;18.70;12.00;;;6.90;99.90;;;;;;4927579;28;20525;-53
2022/03/28 07:39:34;;;;;;;14.47;10.37;;;7.20;99.90;;;;;;4944003;28;20551;-53
2022/03/28 07:42:02;;;;;;;20.53;11.23;;;7.00;99.90;;;;;;4948231;28;20454;-53
2022/03/28 07:44:28;;;;;;;16.00;10.20;;;6.90;99.90;;;;;;4947501;28;20550;-53
2022/03/28 07:46:55;;;;;;;16.47;10.93;;;6.90;99.90;;;;;;4943663;28;20577;-55
2022/03/28 07:49:23;;;;;;;12.27;9.67;;;6.90;99.90;;;;;;4945705;28;20974;-53
2022/03/28 07:51:50;;;;;;;9.83;8.33;;;6.50;99.90;;;;;;4947700;28;20969;-53
2022/03/28 07:54:18;;;;;;;14.60;8.50;;;6.80;99.90;;;;;;4954051;28;20517;-53
2022/03/28 07:56:45;;;;;;;15.43;9.27;;;7.00;99.90;;;;;;4953111;28;20929;-52
2022/03/28 07:59:12;;;;;;;12.50;8.70;;;7.00;99.90;;;;;;4954071;28;20532;-52
2022/03/28 08:01:39;;;;;;;11.00;8.20;;;7.40;99.90;;;;;;4957671;28;20472;-53
2022/03/28 08:04:06;;;;;;;9.83;8.20;;;7.40;99.90;;;;;;4960360;28;20548;-53
2022/03/28 08:06:32;;;;;;;13.30;9.30;;;7.50;99.90;;;;;;4952309;28;20486;-52
2022/03/28 08:08:59;;;;;;;8.40;7.60;;;7.70;99.90;;;;;;4951832;28;20469;-53
2022/03/28 08:11:27;;;;;;;9.10;8.20;;;7.80;99.90;;;;;;4950830;28;20540;-52
2022/03/28 08:13:55;;;;;;;8.53;7.73;;;8.20;99.90;;;;;;4953483;28;20489;-53
2022/03/28 08:16:22;;;;;;;10.23;7.50;;;8.30;99.90;;;;;;4962848;28;20493;-52
2022/03/28 08:18:48;;;;;;;10.47;8.20;;;8.20;99.90;;;;;;4954143;28;20554;-52
2022/03/28 08:21:15;;;;;;;14.00;8.17;;;8.40;99.90;;;;;;4949969;28;20574;-54
2022/03/28 08:23:41;;;;;;;14.00;8.70;;;8.40;99.90;;;;;;4954177;28;20509;-54
2022/03/28 08:26:08;;;;;;;9.20;8.33;;;8.10;99.90;;;;;;4952771;28;21120;-52
2022/03/28 08:28:36;;;;;;;8.40;7.23;;;8.60;99.90;;;;;;4956906;28;20465;-52
2022/03/28 08:31:03;;;;;;;13.43;8.07;;;8.50;99.90;;;;;;4958711;28;20465;-54
2022/03/28 08:33:29;;;;;;;9.47;8.50;;;8.50;99.90;;;;;;4950145;28;21111;-53
2022/03/28 08:35:56;;;;;;;8.77;7.80;;;8.50;99.90;;;;;;4952594;28;21051;-54
2022/03/28 08:38:22;;;;;;;10.83;8.90;;;8.50;99.90;;;;;;4949036;28;20498;-54
2022/03/28 08:40:49;;;;;;;14.73;8.10;;;8.90;99.90;;;;;;4952310;28;20501;-54
2022/03/28 08:43:20;;;;;;;10.47;8.67;;;9.20;94.60;;;;;;4950762;28;20466;-54
2022/03/28 08:45:50;;;;;;;9.20;8.30;;;9.50;22.40;;;;;;4964318;28;20552;-54
2022/03/28 08:48:17;;;;;;;12.97;8.57;;;9.40;33.90;;;;;;4948787;29;20474;-54
2022/03/28 08:50:45;;;;;;;8.77;7.70;;;10.20;42.50;;;;;;4955547;28;20446;-54
2022/03/28 08:53:13;;;;;;;10.50;9.40;;;10.30;69.80;;;;;;4945319;28;20557;-53
2022/03/28 08:55:41;;;;;;;10.00;8.87;;;10.00;66.50;;;;;;4955019;28;20564;-54
2022/03/28 08:58:08;;;;;;;10.30;8.87;;;10.30;69.30;;;;;;4949955;28;20493;-54
2022/03/28 09:00:35;;;;;;;11.90;9.00;;;10.30;71.70;;;;;;4953144;28;21210;-53
2022/03/28 09:03:03;;;;;;;8.73;7.67;;;10.70;73.00;;;;;;4952027;28;20494;-52
2022/03/28 09:05:32;;;;;;;12.07;8.90;;;11.00;83.90;;;;;;4956111;28;20458;-53
2022/03/28 09:07:59;;;;;;;10.40;9.00;;;11.40;89.80;;;;;;4946227;28;20838;-52
2022/03/28 09:10:28;;;;;;;12.00;8.43;;;11.60;98.30;;;;;;4961636;28;20987;-53
2022/03/28 09:13:00;;;;;;;13.60;9.10;;;11.80;99.90;;;;;;4953229;28;20466;-54
2022/03/28 09:15:26;;;;;;;13.80;9.03;;;12.40;99.90;;;;;;4950825;28;20553;-52
2022/03/28 09:17:57;;;;;;;11.67;7.93;;;12.60;99.90;;;;;;4955587;28;20553;-53
2022/03/28 09:20:25;;;;;;;11.73;10.10;;;12.70;99.90;;;;;;4950684;28;20454;-55
2022/03/28 09:22:52;;;;;;;8.77;7.90;;;13.40;99.90;;;;;;4953539;28;20490;-54
2022/03/28 09:25:19;;;;;;;12.23;8.23;;;13.20;99.90;;;;;;4947775;28;20462;-53
2022/03/28 09:27:47;;;;;;;13.77;8.83;;;12.90;99.90;;;;;;4957341;28;20475;-53
2022/03/28 09:30:15;;;;;;;9.03;8.13;;;13.40;99.90;;;;;;4954356;28;20888;-53
2022/03/28 09:32:43;;;;;;;9.17;8.20;;;13.90;99.90;;;;;;4947583;29;20463;-52
2022/03/28 09:35:12;;;;;;;9.73;7.87;;;13.70;99.90;;;;;;4948809;29;21056;-54
2022/03/28 09:37:51;;;;;;;9.80;8.80;;;14.50;99.90;;;;;;4959706;28;20450;-54
2022/03/28 09:40:26;;;;;;;22.03;9.20;;;13.80;99.90;;;;;;4951666;29;20497;-53
2022/03/28 09:42:54;;;;;;;18.93;9.03;;;15.20;99.90;;;;;;4946361;28;21039;-52
2022/03/28 09:45:22;;;;;;;10.63;8.73;;;14.70;99.90;;;;;;4947401;28;20541;-52
2022/03/28 09:47:59;;;;;;;13.03;8.77;;;14.00;99.90;;;;;;4949996;28;21031;-55
2022/03/28 09:50:35;;;;;;;14.13;8.90;;;13.90;99.90;;;;;;4950674;28;20471;-52
2022/03/28 09:53:18;;;;;;;9.30;7.73;;;14.80;99.90;;;;;;4953999;28;20867;-53
2022/03/28 09:55:49;;;;;;;12.17;8.73;;;14.40;99.90;;;;;;4953050;28;20516;-53
2022/03/28 09:58:33;;;;;;;18.20;9.30;;;14.70;99.90;;;;;;4953519;28;20579;-52
2022/03/28 10:01:00;;;;;;;10.47;8.50;;;14.80;99.90;;;;;;4949964;28;20554;-53
2022/03/28 10:03:32;;;;;;;10.33;9.10;;;14.70;99.90;;;;;;4947271;28;20549;-53
2022/03/28 10:06:01;;;;;;;9.50;8.50;;;15.30;99.90;;;;;;4947791;28;20488;-54
2022/03/28 10:08:30;;;;;;;8.63;7.70;;;15.30;99.90;;;;;;4946754;28;20466;-54
2022/03/28 10:10:57;;;;;;;17.40;8.70;;;15.00;99.90;;;;;;4946762;28;20585;-54
2022/03/28 10:13:25;;;;;;;10.17;8.50;;;15.10;99.90;;;;;;4965484;28;20549;-55
2022/03/28 10:15:52;;;;;;;12.70;8.80;;;15.30;99.90;;;;;;4951416;28;21023;-54
2022/03/28 10:18:18;;;;;;;12.37;8.53;;;15.00;99.90;;;;;;4950020;28;20869;-54
2022/03/28 10:20:53;;;;;;;8.60;7.90;;;14.90;99.90;;;;;;4951239;28;20486;-53
2022/03/28 10:23:20;;;;;;;9.40;8.47;;;14.40;99.90;;;;;;4952124;28;20995;-54
2022/03/28 10:25:49;;;;;;;10.60;8.17;;;15.30;99.90;;;;;;4960563;28;20509;-55
2022/03/28 10:28:20;;;;;;;10.63;9.53;;;15.20;99.90;;;;;;4947007;28;20891;-53
2022/03/28 10:30:47;;;;;;;10.37;8.37;;;15.70;1.40;;;;;;4955598;28;20454;-54
2022/03/28 10:33:17;;;;;;;11.60;9.17;;;16.00;99.90;;;;;;4952536;28;20478;-54
2022/03/28 10:35:56;;;;;;;9.63;8.10;;;15.60;99.90;;;;;;4955073;28;20495;-54
2022/03/28 10:38:23;;;;;;;9.47;8.47;;;15.50;99.90;;;;;;4960652;28;20984;-54
2022/03/28 10:40:55;;;;;;;11.33;9.70;;;15.50;99.90;;;;;;4950827;28;20470;-54
2022/03/28 10:43:25;;;;;;;11.40;8.70;;;15.50;99.90;;;;;;4953537;28;20474;-54
2022/03/28 10:45:53;;;;;;;11.40;9.30;;;16.10;99.90;;;;;;4949060;28;20545;-54
2022/03/28 10:48:35;;;;;;;10.50;9.30;;;15.50;99.90;;;;;;4948231;28;20449;-54
2022/03/28 10:51:07;;;;;;;11.50;9.47;;;14.70;99.90;;;;;;4944517;29;20470;-55
2022/03/28 10:53:39;;;;;;;12.80;10.50;;;14.80;99.90;;;;;;4949732;28;20487;-55
2022/03/28 10:56:13;;;;;;;12.03;9.70;;;14.70;99.90;;;;;;4948958;28;20482;-54
2022/03/28 10:58:41;;;;;;;10.47;8.93;;;14.70;99.90;;;;;;4951340;28;20470;-54
2022/03/28 11:01:23;;;;;;;13.73;9.60;;;14.60;99.90;;;;;;4948620;28;20507;-55
2022/03/28 11:03:53;;;;;;;9.67;8.83;;;14.90;99.90;;;;;;4954946;28;20465;-54
2022/03/28 11:06:21;;;;;;;10.17;9.07;;;14.30;99.90;;;;;;4953963;28;20502;-54
2022/03/28 11:08:59;;;;;;;15.60;8.93;;;13.80;99.90;;;;;;4956901;28;20470;-54
2022/03/28 11:11:31;;;;;;;10.73;9.10;;;14.30;99.90;;;;;;4955606;28;20446;-54
2022/03/28 11:13:59;;;;;;;9.93;8.97;;;14.40;99.90;;;;;;4955326;28;20458;-53
2022/03/28 11:16:42;;;;;;;10.30;9.40;;;14.80;99.90;;;;;;4956832;28;20470;-54
2022/03/28 11:19:29;;;;;;;10.07;9.07;;;14.80;99.90;;;;;;4953208;28;20462;-54
2022/03/28 11:21:58;;;;;;;9.97;9.07;;;15.80;99.90;;;;;;4947685;28;20484;-54
2022/03/28 11:24:52;;;;;;;10.10;9.17;;;16.10;99.90;;;;;;4952560;28;20458;-55
2022/03/28 11:27:21;;;;;;;9.87;8.80;;;15.50;99.90;;;;;;4959756;28;20528;-54
2022/03/28 11:29:48;;;;;;;10.30;9.23;;;15.30;99.90;;;;;;4959487;28;21030;-55
2022/03/28 11:32:17;;;;;;;9.30;8.33;;;15.10;99.90;;;;;;4956598;28;20548;-55
2022/03/28 11:34:52;;;;;;;10.10;9.20;;;14.90;99.90;;;;;;4960126;28;20517;-55
2022/03/28 11:37:20;;;;;;;10.30;9.27;;;14.80;99.90;;;;;;4951998;28;20504;-55
2022/03/28 11:39:58;;;;;;;12.83;9.83;;;14.50;99.90;;;;;;4959970;28;20469;-55
2022/03/28 11:42:28;;;;;;;9.83;8.80;;;14.50;99.90;;;;;;4952277;28;20465;-55
2022/03/28 11:44:56;;;;;;;10.50;8.90;;;14.60;99.90;;;;;;4958975;28;20474;-56
2022/03/28 11:47:24;;;;;;;13.10;8.73;;;14.80;99.90;;;;;;4963792;28;20513;-54
2022/03/28 11:49:55;;;;;;;11.50;8.90;;;14.80;99.90;;;;;;4948642;28;20466;-54
2022/03/28 11:52:23;;;;;;;10.30;9.37;;;14.80;99.90;;;;;;4946482;28;20466;-54
2022/03/28 11:54:50;;;;;;;15.07;8.90;;;14.50;99.90;;;;;;4947252;28;20589;-55
2022/03/28 12:00:18;;;;;;;9.77;8.60;;;14.80;99.90;;;;;;4945068;28;20466;-55
2022/03/28 12:02:52;;;;;;;16.70;8.57;;;15.00;1.40;;;;;;4951213;28;20597;-54
2022/03/28 12:05:30;;;;;;;8.10;7.40;;;14.90;99.90;;;;;;4949617;28;20504;-53
2022/03/28 12:07:58;;;;;;;10.97;8.07;;;15.20;99.90;;;;;;4944833;28;20915;-54
2022/03/28 12:10:26;;;;;;;9.63;8.83;;;15.40;99.90;;;;;;4945673;28;20553;-55
2022/03/28 12:12:55;;;;;;;9.80;8.93;;;15.50;99.90;;;;;;4944801;28;20565;-54
2022/03/28 12:15:27;;;;;;;10.67;9.77;;;15.30;99.90;;;;;;4944770;28;20490;-53
2022/03/28 12:17:54;;;;;;;10.80;9.80;;;15.30;1.40;;;;;;4943524;28;20526;-54
2022/03/28 12:20:23;;;;;;;11.60;9.80;;;15.40;99.90;;;;;;4943012;28;20505;-54
2022/03/28 12:22:50;;;;;;;10.33;9.23;;;15.80;99.90;;;;;;4945568;28;20916;-53
2022/03/28 12:25:28;;;;;;;10.37;9.40;;;15.80;99.90;;;;;;4940359;28;20598;-54
2022/03/28 12:27:58;;;;;;;9.23;8.37;;;15.70;99.90;;;;;;4944662;28;20469;-54
2022/03/28 12:30:29;;;;;;;10.23;9.27;;;16.10;99.90;;;;;;4953272;28;20565;-55
2022/03/28 12:32:56;;;;;;;10.63;9.50;;;16.20;99.90;;;;;;4946748;28;20513;-55
2022/03/28 12:35:23;;;;;;;12.00;8.93;;;16.20;99.90;;;;;;4951404;28;20573;-55
2022/03/28 12:38:06;;;;;;;10.70;9.60;;;16.40;99.90;;;;;;4945575;28;20965;-55
2022/03/28 12:40:33;;;;;;;19.93;9.60;;;16.20;99.90;;;;;;4943793;28;20486;-54
2022/03/28 12:43:04;;;;;;;10.17;9.17;;;16.30;99.90;;;;;;4948270;28;20477;-53
2022/03/28 12:45:31;;;;;;;10.20;9.20;;;16.90;99.90;;;;;;4947445;28;20458;-54
2022/03/28 12:48:01;;;;;;;10.80;9.87;;;17.00;99.90;;;;;;4947680;28;20639;-54
2022/03/28 12:50:27;;;;;;;10.33;9.43;;;17.80;99.90;;;;;;4949358;28;20458;-54
2022/03/28 12:53:12;;;;;;;12.37;11.10;;;18.00;99.90;;;;;;4955240;28;20456;-55
2022/03/28 12:55:39;;;;;;;11.63;10.40;;;16.90;99.90;;;;;;4955940;28;20490;-54